createdAt,value
2023-03-22T00:00:03.081Z,7.21
2023-03-22T00:00:16.294Z,7.16
2023-03-22T00:00:29.515Z,7.18
2023-03-22T00:00:41.753Z,7.18
2023-03-22T00:00:53.257Z,7.16
2023-03-22T00:01:04.057Z,7.16
2023-03-22T00:01:16.524Z,7.15
2023-03-22T00:01:29.000Z,7.15
2023-03-22T00:01:39.827Z,7.14
2023-03-22T00:01:50.575Z,7.14
2023-03-22T00:02:01.345Z,7.14
2023-03-22T00:02:13.176Z,7.12
2023-03-22T00:02:24.908Z,7.12
2023-03-22T00:02:36.879Z,7.11
2023-03-22T00:02:47.723Z,7.11
2023-03-22T00:02:59.492Z,7.11
2023-03-22T00:03:12.222Z,7.09
2023-03-22T00:03:23.061Z,7.09
2023-03-22T00:03:34.803Z,7.09
2023-03-22T00:03:46.806Z,7.09
2023-03-22T00:03:57.640Z,7.08
2023-03-22T00:04:08.455Z,7.09
2023-03-22T00:04:20.288Z,7.09
2023-03-22T00:04:31.080Z,7.08
2023-03-22T00:04:43.377Z,7.09
2023-03-22T00:04:55.545Z,7.08
2023-03-22T00:05:06.369Z,7.07
2023-03-22T00:05:17.186Z,7.07
2023-03-22T00:05:28.972Z,7.08
2023-03-22T00:05:40.731Z,7.05
2023-03-22T00:05:51.527Z,7.04
2023-03-22T00:06:04.039Z,7.05
2023-03-22T00:06:14.864Z,7.05
2023-03-22T00:06:27.838Z,7.04
2023-03-22T00:06:38.698Z,7.05
2023-03-22T00:06:49.509Z,7.05
2023-03-22T00:07:02.658Z,7.04
2023-03-22T00:07:15.109Z,7.01
2023-03-22T00:07:26.947Z,7.01
2023-03-22T00:07:38.671Z,7.01
2023-03-22T00:07:49.468Z,7.04
2023-03-22T00:08:01.280Z,7.01
2023-03-22T00:08:12.087Z,7.01
2023-03-22T00:08:23.868Z,7.01
2023-03-22T00:08:34.598Z,7.01
2023-03-22T00:08:46.326Z,7.00
2023-03-22T00:08:58.109Z,7.00
2023-03-22T00:09:10.350Z,7.00
2023-03-22T00:09:23.058Z,6.99
2023-03-22T00:09:35.384Z,7.00
2023-03-22T00:09:47.157Z,6.99
2023-03-22T00:09:58.942Z,6.96
2023-03-22T00:10:10.728Z,6.97
2023-03-22T00:10:23.179Z,6.96
2023-03-22T00:10:36.151Z,6.96
2023-03-22T00:10:47.919Z,6.96
2023-03-22T00:10:59.768Z,6.94
2023-03-22T00:11:10.629Z,6.94
2023-03-22T00:11:23.666Z,6.94
2023-03-22T00:11:36.165Z,6.94
2023-03-22T00:11:46.994Z,6.93
2023-03-22T00:11:58.736Z,6.93
2023-03-22T00:12:09.510Z,6.93
2023-03-22T00:12:22.484Z,6.93
2023-03-22T00:12:35.714Z,6.91
2023-03-22T00:12:47.458Z,6.91
2023-03-22T00:12:59.736Z,6.91
2023-03-22T00:13:12.962Z,6.91
2023-03-22T00:13:25.199Z,6.91
2023-03-22T00:13:36.981Z,6.90
2023-03-22T00:13:47.782Z,6.90
2023-03-22T00:14:00.236Z,6.90
2023-03-22T00:14:11.040Z,6.89
2023-03-22T00:14:22.781Z,6.90
2023-03-22T00:14:36.565Z,6.89
2023-03-22T00:14:49.030Z,6.89
2023-03-22T00:14:59.809Z,6.90
2023-03-22T00:15:11.608Z,6.90
2023-03-22T00:15:22.408Z,6.90
2023-03-22T00:15:34.858Z,6.91
2023-03-22T00:15:45.754Z,6.91
2023-03-22T00:15:56.547Z,6.93
2023-03-22T00:16:09.155Z,6.93
2023-03-22T00:16:22.018Z,6.93
2023-03-22T00:16:33.931Z,6.93
2023-03-22T00:16:45.719Z,6.94
2023-03-22T00:16:57.939Z,6.94
2023-03-22T00:17:10.180Z,6.94
2023-03-22T00:17:22.669Z,6.94
2023-03-22T00:17:34.680Z,6.96
2023-03-22T00:17:47.180Z,6.94
2023-03-22T00:17:59.059Z,6.94
2023-03-22T00:18:10.632Z,6.96
2023-03-22T00:18:22.380Z,6.97
2023-03-22T00:18:34.920Z,6.96
2023-03-22T00:18:46.630Z,6.97
2023-03-22T00:18:57.456Z,6.99
2023-03-22T00:19:08.266Z,6.97
2023-03-22T00:19:19.080Z,6.97
2023-03-22T00:19:29.890Z,6.97
2023-03-22T00:19:42.429Z,6.97
2023-03-22T00:19:54.932Z,6.97
2023-03-22T00:20:06.661Z,6.99
2023-03-22T00:20:20.777Z,6.97
2023-03-22T00:20:33.139Z,6.99
2023-03-22T00:20:44.884Z,6.99
2023-03-22T00:20:55.681Z,6.99
2023-03-22T00:21:07.872Z,7.00
2023-03-22T00:21:19.622Z,6.97
2023-03-22T00:21:31.343Z,6.97
2023-03-22T00:21:44.069Z,6.97
2023-03-22T00:21:54.810Z,6.96
2023-03-22T00:22:05.635Z,6.97
2023-03-22T00:22:18.090Z,6.96
2023-03-22T00:22:28.841Z,6.96
2023-03-22T00:22:42.060Z,6.96
2023-03-22T00:22:53.809Z,6.96
2023-03-22T00:23:04.601Z,6.96
2023-03-22T00:23:16.342Z,6.94
2023-03-22T00:23:28.613Z,6.94
2023-03-22T00:23:40.342Z,6.94
2023-03-22T00:23:52.811Z,6.94
2023-03-22T00:24:05.288Z,6.93
2023-03-22T00:24:17.064Z,6.91
2023-03-22T00:24:27.875Z,6.91
2023-03-22T00:24:40.969Z,6.90
2023-03-22T00:24:51.759Z,6.89
2023-03-22T00:25:02.537Z,6.89
2023-03-22T00:25:14.271Z,6.90
2023-03-22T00:25:26.531Z,6.89
2023-03-22T00:25:38.282Z,6.87
2023-03-22T00:25:50.073Z,6.86
2023-03-22T00:26:02.070Z,6.86
2023-03-22T00:26:12.878Z,6.83
2023-03-22T00:26:24.868Z,6.87
2023-03-22T00:26:37.129Z,6.83
2023-03-22T00:26:49.611Z,6.82
2023-03-22T00:27:01.929Z,6.82
2023-03-22T00:27:12.691Z,6.82
2023-03-22T00:27:24.468Z,6.82
2023-03-22T00:27:36.212Z,6.81
2023-03-22T00:27:47.964Z,6.79
2023-03-22T00:27:58.744Z,6.81
2023-03-22T00:28:10.994Z,6.79
2023-03-22T00:28:21.744Z,6.81
2023-03-22T00:28:34.776Z,6.79
2023-03-22T00:28:48.512Z,6.79
2023-03-22T00:29:00.233Z,6.79
2023-03-22T00:29:11.994Z,6.81
2023-03-22T00:29:23.706Z,6.82
2023-03-22T00:29:34.513Z,6.81
2023-03-22T00:29:47.062Z,6.82
2023-03-22T00:29:57.866Z,6.83
2023-03-22T00:30:10.134Z,6.83
2023-03-22T00:30:20.931Z,6.83
2023-03-22T00:30:33.355Z,6.83
2023-03-22T00:30:45.105Z,6.86
2023-03-22T00:30:56.956Z,6.86
2023-03-22T00:31:08.724Z,6.87
2023-03-22T00:31:19.525Z,6.87
2023-03-22T00:31:30.357Z,6.87
2023-03-22T00:31:41.193Z,6.89
2023-03-22T00:31:52.025Z,6.87
2023-03-22T00:32:03.768Z,6.89
2023-03-22T00:32:15.980Z,6.89
2023-03-22T00:32:26.728Z,6.89
2023-03-22T00:32:39.696Z,6.90
2023-03-22T00:32:51.444Z,6.90
2023-03-22T00:33:03.175Z,6.90
2023-03-22T00:33:14.938Z,6.91
2023-03-22T00:33:26.703Z,6.93
2023-03-22T00:33:37.489Z,6.93
2023-03-22T00:33:48.298Z,6.94
2023-03-22T00:34:01.234Z,6.93
2023-03-22T00:34:13.679Z,6.94
2023-03-22T00:34:24.456Z,6.94
2023-03-22T00:34:36.942Z,6.96
2023-03-22T00:34:47.748Z,6.96
2023-03-22T00:34:59.524Z,6.96
2023-03-22T00:35:11.265Z,6.96
2023-03-22T00:35:23.047Z,6.96
2023-03-22T00:35:35.511Z,6.97
2023-03-22T00:35:48.011Z,6.96
2023-03-22T00:35:59.756Z,6.97
2023-03-22T00:36:10.586Z,6.97
2023-03-22T00:36:21.592Z,6.99
2023-03-22T00:36:32.370Z,6.99
2023-03-22T00:36:44.077Z,6.97
2023-03-22T00:36:57.038Z,6.99
2023-03-22T00:37:07.891Z,6.99
2023-03-22T00:37:19.856Z,6.99
2023-03-22T00:37:32.308Z,6.99
2023-03-22T00:37:43.104Z,6.99
2023-03-22T00:37:54.855Z,6.97
2023-03-22T00:38:06.849Z,6.97
2023-03-22T00:38:20.641Z,6.99
2023-03-22T00:38:41.676Z,6.97
2023-03-22T00:38:49.992Z,6.96
2023-03-22T00:39:00.829Z,6.96
2023-03-22T00:39:12.723Z,6.96
2023-03-22T00:39:23.547Z,6.94
2023-03-22T00:39:34.317Z,6.97
2023-03-22T00:39:46.838Z,6.96
2023-03-22T00:39:58.571Z,6.97
2023-03-22T00:40:09.357Z,6.97
2023-03-22T00:40:22.308Z,6.96
2023-03-22T00:40:35.544Z,6.94
2023-03-22T00:40:46.341Z,6.96
2023-03-22T00:41:00.052Z,6.96
2023-03-22T00:41:12.317Z,6.94
2023-03-22T00:41:26.111Z,6.96
2023-03-22T00:41:37.843Z,6.94
2023-03-22T00:41:49.598Z,6.94
2023-03-22T00:42:01.827Z,6.94
2023-03-22T00:42:14.509Z,6.94
2023-03-22T00:42:25.310Z,6.94
2023-03-22T00:42:37.520Z,6.94
2023-03-22T00:42:50.750Z,6.94
2023-03-22T00:43:01.532Z,6.93
2023-03-22T00:43:14.100Z,6.93
2023-03-22T00:43:26.539Z,6.93
2023-03-22T00:43:37.380Z,6.91
2023-03-22T00:43:49.841Z,6.91
2023-03-22T00:44:02.347Z,6.91
2023-03-22T00:44:13.171Z,6.91
2023-03-22T00:44:25.609Z,6.90
2023-03-22T00:44:38.577Z,6.91
2023-03-22T00:44:50.864Z,6.89
2023-03-22T00:45:02.610Z,6.90
2023-03-22T00:45:15.132Z,6.90
2023-03-22T00:45:27.560Z,6.89
2023-03-22T00:45:38.341Z,6.89
2023-03-22T00:45:50.153Z,6.89
2023-03-22T00:46:02.870Z,6.89
2023-03-22T00:46:14.655Z,6.87
2023-03-22T00:46:25.536Z,6.89
2023-03-22T00:46:37.289Z,6.89
2023-03-22T00:46:49.805Z,6.89
2023-03-22T00:47:01.521Z,6.89
2023-03-22T00:47:13.292Z,6.89
2023-03-22T00:47:25.043Z,6.90
2023-03-22T00:47:37.289Z,6.90
2023-03-22T00:47:49.766Z,6.89
2023-03-22T00:48:00.619Z,6.89
2023-03-22T00:48:12.479Z,6.89
2023-03-22T00:48:24.808Z,6.90
2023-03-22T00:48:35.691Z,6.90
2023-03-22T00:48:46.488Z,6.89
2023-03-22T00:48:57.284Z,6.90
2023-03-22T00:49:09.028Z,6.91
2023-03-22T00:49:21.998Z,6.90
2023-03-22T00:49:34.501Z,6.89
2023-03-22T00:49:46.382Z,6.90
2023-03-22T00:49:58.157Z,6.90
2023-03-22T00:50:09.903Z,6.90
2023-03-22T00:50:21.868Z,6.90
2023-03-22T00:50:32.651Z,6.90
2023-03-22T00:50:43.421Z,6.91
2023-03-22T00:50:55.244Z,6.90
2023-03-22T00:51:06.996Z,6.90
2023-03-22T00:51:17.765Z,6.90
2023-03-22T00:51:30.252Z,6.91
2023-03-22T00:51:41.013Z,6.90
2023-03-22T00:51:53.270Z,6.90
2023-03-22T00:52:04.132Z,6.90
2023-03-22T00:52:14.966Z,6.91
2023-03-22T00:52:26.682Z,6.90
2023-03-22T00:52:37.501Z,6.90
2023-03-22T00:52:48.300Z,6.91
2023-03-22T00:53:00.097Z,6.91
2023-03-22T00:53:13.229Z,6.91
2023-03-22T00:53:25.061Z,6.91
2023-03-22T00:53:36.886Z,6.91
2023-03-22T00:53:48.633Z,6.91
2023-03-22T00:54:00.410Z,6.90
2023-03-22T00:54:11.185Z,6.91
2023-03-22T00:54:22.001Z,6.93
2023-03-22T00:54:35.201Z,6.91
2023-03-22T00:54:45.998Z,6.90
2023-03-22T00:54:57.787Z,6.90
2023-03-22T00:55:08.628Z,6.90
2023-03-22T00:55:21.066Z,6.93
2023-03-22T00:55:33.554Z,6.93
2023-03-22T00:55:46.043Z,6.93
2023-03-22T00:55:56.815Z,6.93
2023-03-22T00:56:08.531Z,6.94
2023-03-22T00:56:19.293Z,6.93
2023-03-22T00:56:30.075Z,6.93
2023-03-22T00:56:41.834Z,6.96
2023-03-22T00:56:55.044Z,6.94
2023-03-22T00:57:06.827Z,6.94
2023-03-22T00:57:19.316Z,6.94
2023-03-22T00:57:31.752Z,6.96
2023-03-22T00:57:43.724Z,6.94
2023-03-22T00:57:56.206Z,6.97
2023-03-22T00:58:08.682Z,6.96
2023-03-22T00:58:21.939Z,6.97
2023-03-22T00:58:32.703Z,6.97
2023-03-22T00:58:44.497Z,6.97
2023-03-22T00:58:56.975Z,6.97
2023-03-22T00:59:08.677Z,6.99
2023-03-22T00:59:19.477Z,6.97
2023-03-22T00:59:31.296Z,6.99
2023-03-22T00:59:42.110Z,7.00
2023-03-22T00:59:54.813Z,6.99
2023-03-22T01:00:07.280Z,6.99
2023-03-22T01:00:18.078Z,6.99
2023-03-22T01:00:28.886Z,7.00
2023-03-22T01:00:41.781Z,7.00
2023-03-22T01:00:52.697Z,6.99
2023-03-22T01:01:04.463Z,7.00
2023-03-22T01:01:15.482Z,7.00
2023-03-22T01:01:27.999Z,7.00
2023-03-22T01:01:40.244Z,7.00
2023-03-22T01:01:51.038Z,7.00
2023-03-22T01:02:03.564Z,7.01
2023-03-22T01:02:15.835Z,7.04
2023-03-22T01:02:26.677Z,7.01
2023-03-22T01:02:38.492Z,7.01
2023-03-22T01:02:50.925Z,7.01
2023-03-22T01:03:03.364Z,7.01
2023-03-22T01:03:14.243Z,7.01
2023-03-22T01:03:26.520Z,7.01
2023-03-22T01:03:38.327Z,7.01
2023-03-22T01:03:50.152Z,7.01
2023-03-22T01:04:02.779Z,7.01
2023-03-22T01:04:15.968Z,7.01
2023-03-22T01:04:26.783Z,7.01
2023-03-22T01:04:37.615Z,7.04
2023-03-22T01:04:48.374Z,7.04
2023-03-22T01:04:59.239Z,7.04
2023-03-22T01:05:11.031Z,7.01
2023-03-22T01:05:22.858Z,7.01
2023-03-22T01:05:34.647Z,7.01
2023-03-22T01:05:48.554Z,7.04
2023-03-22T01:06:02.342Z,7.05
2023-03-22T01:06:14.612Z,7.04
2023-03-22T01:06:26.345Z,7.04
2023-03-22T01:06:37.164Z,7.05
2023-03-22T01:06:49.471Z,7.05
2023-03-22T01:07:00.365Z,7.05
2023-03-22T01:07:13.122Z,7.04
2023-03-22T01:07:24.040Z,7.05
2023-03-22T01:07:34.836Z,7.05
2023-03-22T01:07:45.652Z,7.05
2023-03-22T01:07:58.424Z,7.04
2023-03-22T01:08:11.153Z,7.04
2023-03-22T01:08:22.994Z,7.05
2023-03-22T01:08:33.780Z,7.05
2023-03-22T01:08:46.361Z,7.05
2023-03-22T01:08:58.092Z,7.05
2023-03-22T01:09:08.854Z,7.04
2023-03-22T01:09:21.175Z,7.05
2023-03-22T01:09:34.144Z,7.05
2023-03-22T01:09:45.856Z,7.05
2023-03-22T01:09:56.689Z,7.05
2023-03-22T01:10:10.427Z,7.04
2023-03-22T01:10:22.173Z,7.05
2023-03-22T01:10:32.971Z,7.05
2023-03-22T01:10:46.184Z,7.04
2023-03-22T01:10:59.905Z,7.05
2023-03-22T01:11:11.931Z,7.07
2023-03-22T01:11:23.704Z,7.04
2023-03-22T01:11:34.606Z,7.04
2023-03-22T01:11:45.388Z,7.04
2023-03-22T01:11:58.131Z,7.05
2023-03-22T01:12:08.884Z,7.05
2023-03-22T01:12:19.696Z,7.04
2023-03-22T01:12:32.105Z,7.01
2023-03-22T01:12:42.888Z,7.04
2023-03-22T01:12:55.334Z,7.04
2023-03-22T01:13:07.067Z,7.01
2023-03-22T01:13:18.852Z,7.01
2023-03-22T01:13:31.342Z,7.04
2023-03-22T01:13:42.373Z,7.01
2023-03-22T01:13:53.183Z,7.04
2023-03-22T01:14:05.454Z,7.04
2023-03-22T01:14:17.732Z,7.01
2023-03-22T01:14:29.018Z,7.01
2023-03-22T01:14:40.793Z,7.01
2023-03-22T01:14:52.554Z,7.00
2023-03-22T01:15:03.372Z,7.00
2023-03-22T01:15:16.607Z,6.99
2023-03-22T01:15:27.437Z,7.00
2023-03-22T01:15:38.233Z,6.99
2023-03-22T01:15:50.732Z,6.99
2023-03-22T01:16:01.551Z,6.99
2023-03-22T01:16:14.848Z,6.97
2023-03-22T01:16:27.474Z,6.97
2023-03-22T01:16:39.260Z,6.97
2023-03-22T01:16:51.124Z,6.97
2023-03-22T01:17:02.885Z,6.96
2023-03-22T01:17:13.714Z,6.94
2023-03-22T01:17:25.484Z,6.96
2023-03-22T01:17:37.201Z,6.94
2023-03-22T01:17:48.948Z,6.94
2023-03-22T01:18:01.447Z,6.94
2023-03-22T01:18:12.287Z,6.96
2023-03-22T01:18:23.073Z,6.94
2023-03-22T01:18:34.825Z,6.94
2023-03-22T01:18:46.546Z,6.94
2023-03-22T01:18:59.015Z,6.94
2023-03-22T01:19:10.762Z,6.93
2023-03-22T01:19:21.549Z,6.94
2023-03-22T01:19:33.336Z,6.96
2023-03-22T01:19:45.803Z,6.93
2023-03-22T01:19:58.254Z,6.93
2023-03-22T01:20:09.046Z,6.93
2023-03-22T01:20:19.839Z,6.91
2023-03-22T01:20:31.554Z,6.91
2023-03-22T01:20:42.510Z,6.91
2023-03-22T01:20:53.304Z,6.90
2023-03-22T01:21:04.053Z,6.91
2023-03-22T01:21:14.865Z,6.90
2023-03-22T01:21:25.605Z,6.90
2023-03-22T01:21:37.458Z,6.87
2023-03-22T01:21:48.255Z,6.90
2023-03-22T01:22:00.304Z,6.89
2023-03-22T01:22:11.170Z,6.89
2023-03-22T01:22:21.961Z,6.87
2023-03-22T01:22:32.725Z,6.87
2023-03-22T01:22:43.475Z,6.86
2023-03-22T01:22:56.716Z,6.86
2023-03-22T01:23:09.197Z,6.86
2023-03-22T01:23:21.687Z,6.83
2023-03-22T01:23:33.424Z,6.83
2023-03-22T01:23:45.935Z,6.86
2023-03-22T01:23:56.705Z,6.83
2023-03-22T01:24:08.431Z,6.83
2023-03-22T01:24:19.214Z,6.82
2023-03-22T01:24:32.227Z,6.82
2023-03-22T01:24:42.975Z,6.81
2023-03-22T01:24:54.656Z,6.82
2023-03-22T01:25:06.487Z,6.82
2023-03-22T01:25:18.239Z,6.81
2023-03-22T01:25:30.556Z,6.82
2023-03-22T01:25:43.266Z,6.81
2023-03-22T01:25:54.094Z,6.82
2023-03-22T01:26:06.805Z,6.83
2023-03-22T01:26:20.057Z,6.82
2023-03-22T01:26:33.283Z,6.82
2023-03-22T01:26:44.064Z,6.83
2023-03-22T01:26:57.533Z,6.82
2023-03-22T01:27:09.766Z,6.83
2023-03-22T01:27:20.516Z,6.83
2023-03-22T01:27:31.315Z,6.82
2023-03-22T01:27:42.115Z,6.86
2023-03-22T01:27:52.878Z,6.86
2023-03-22T01:28:04.618Z,6.86
2023-03-22T01:28:17.585Z,6.86
2023-03-22T01:28:30.855Z,6.87
2023-03-22T01:28:44.095Z,6.87
2023-03-22T01:28:55.846Z,6.87
2023-03-22T01:29:08.850Z,6.89
2023-03-22T01:29:20.797Z,6.89
2023-03-22T01:29:33.255Z,6.90
2023-03-22T01:29:47.017Z,6.90
2023-03-22T01:29:57.820Z,6.90
2023-03-22T01:30:08.611Z,6.91
2023-03-22T01:30:21.096Z,6.91
2023-03-22T01:30:32.863Z,6.91
2023-03-22T01:30:46.152Z,6.91
2023-03-22T01:30:56.990Z,6.91
2023-03-22T01:31:09.527Z,6.93
2023-03-22T01:31:20.374Z,6.93
2023-03-22T01:31:31.234Z,6.94
2023-03-22T01:31:41.990Z,6.93
2023-03-22T01:31:53.707Z,6.91
2023-03-22T01:32:04.477Z,6.93
2023-03-22T01:32:16.206Z,6.93
2023-03-22T01:32:27.959Z,6.91
2023-03-22T01:32:39.537Z,6.93
2023-03-22T01:32:51.277Z,6.91
2023-03-22T01:33:03.757Z,6.93
2023-03-22T01:33:16.230Z,6.94
2023-03-22T01:33:29.946Z,6.93
2023-03-22T01:33:40.730Z,6.93
2023-03-22T01:33:51.524Z,6.94
2023-03-22T01:34:02.328Z,6.94
2023-03-22T01:34:13.088Z,6.93
2023-03-22T01:34:23.913Z,6.93
2023-03-22T01:34:35.682Z,6.94
2023-03-22T01:34:46.467Z,6.94
2023-03-22T01:34:58.732Z,6.94
2023-03-22T01:35:09.528Z,6.94
2023-03-22T01:35:21.824Z,6.96
2023-03-22T01:35:34.564Z,6.96
2023-03-22T01:35:45.479Z,6.96
2023-03-22T01:35:56.320Z,6.97
2023-03-22T01:36:08.045Z,6.96
2023-03-22T01:36:18.877Z,6.96
2023-03-22T01:36:31.337Z,6.96
2023-03-22T01:36:42.119Z,6.97
2023-03-22T01:36:52.963Z,6.96
2023-03-22T01:37:04.745Z,6.97
2023-03-22T01:37:15.579Z,6.96
2023-03-22T01:37:28.060Z,6.97
2023-03-22T01:37:40.350Z,6.97
2023-03-22T01:37:52.221Z,6.99
2023-03-22T01:38:04.026Z,6.97
2023-03-22T01:38:14.820Z,6.96
2023-03-22T01:38:25.642Z,6.99
2023-03-22T01:38:38.932Z,6.97
2023-03-22T01:38:51.371Z,6.96
2023-03-22T01:39:03.141Z,6.97
2023-03-22T01:39:14.860Z,6.99
2023-03-22T01:39:27.102Z,6.97
2023-03-22T01:39:39.590Z,6.97
2023-03-22T01:39:51.300Z,6.99
2023-03-22T01:40:02.102Z,6.99
2023-03-22T01:40:12.950Z,6.99
2023-03-22T01:40:23.828Z,6.99
2023-03-22T01:40:35.629Z,6.97
2023-03-22T01:40:47.392Z,6.99
2023-03-22T01:40:58.159Z,6.97
2023-03-22T01:41:09.020Z,6.99
2023-03-22T01:41:19.797Z,6.97
2023-03-22T01:41:30.611Z,6.99
2023-03-22T01:41:41.473Z,6.99
2023-03-22T01:41:52.280Z,6.97
2023-03-22T01:42:04.259Z,6.99
2023-03-22T01:42:15.035Z,6.99
2023-03-22T01:42:25.843Z,7.00
2023-03-22T01:42:37.655Z,6.99
2023-03-22T01:42:50.120Z,6.97
2023-03-22T01:43:02.640Z,6.99
2023-03-22T01:43:13.457Z,7.00
2023-03-22T01:43:24.217Z,6.99
2023-03-22T01:43:35.031Z,6.99
2023-03-22T01:43:45.834Z,7.00
2023-03-22T01:43:58.056Z,6.99
2023-03-22T01:44:10.007Z,7.00
2023-03-22T01:44:20.829Z,7.00
2023-03-22T01:44:32.576Z,7.00
2023-03-22T01:44:43.383Z,7.00
2023-03-22T01:44:54.177Z,7.01
2023-03-22T01:45:05.936Z,6.99
2023-03-22T01:45:18.648Z,7.01
2023-03-22T01:45:31.395Z,7.04
2023-03-22T01:45:43.667Z,7.01
2023-03-22T01:45:55.590Z,7.04
2023-03-22T01:46:06.383Z,7.04
2023-03-22T01:46:18.235Z,7.04
2023-03-22T01:46:30.015Z,7.04
2023-03-22T01:46:42.793Z,7.04
2023-03-22T01:46:55.305Z,7.05
2023-03-22T01:47:06.071Z,7.07
2023-03-22T01:47:18.350Z,7.05
2023-03-22T01:47:29.175Z,7.05
2023-03-22T01:47:41.479Z,7.07
2023-03-22T01:47:52.329Z,7.05
2023-03-22T01:48:03.156Z,7.07
2023-03-22T01:48:14.072Z,7.08
2023-03-22T01:48:25.858Z,7.07
2023-03-22T01:48:36.635Z,7.08
2023-03-22T01:48:48.473Z,7.08
2023-03-22T01:49:00.307Z,7.08
2023-03-22T01:49:12.864Z,7.08
2023-03-22T01:49:24.759Z,7.09
2023-03-22T01:49:35.526Z,7.09
2023-03-22T01:49:46.317Z,7.11
2023-03-22T01:49:58.757Z,7.09
2023-03-22T01:50:11.245Z,7.09
2023-03-22T01:50:21.987Z,7.09
2023-03-22T01:50:32.769Z,7.11
2023-03-22T01:50:45.504Z,7.09
2023-03-22T01:50:56.279Z,7.09
2023-03-22T01:51:08.041Z,7.09
2023-03-22T01:51:18.843Z,7.11
2023-03-22T01:51:31.306Z,7.11
2023-03-22T01:51:44.565Z,7.12
2023-03-22T01:51:55.397Z,7.12
2023-03-22T01:52:07.138Z,7.11
2023-03-22T01:52:19.390Z,7.12
2023-03-22T01:52:31.619Z,7.12
2023-03-22T01:52:43.377Z,7.11
2023-03-22T01:52:55.346Z,7.11
2023-03-22T01:53:07.824Z,7.11
2023-03-22T01:53:19.636Z,7.12
2023-03-22T01:53:30.418Z,7.11
2023-03-22T01:53:43.659Z,7.11
2023-03-22T01:53:54.409Z,7.11
2023-03-22T01:54:06.621Z,7.12
2023-03-22T01:54:17.410Z,7.11
2023-03-22T01:54:30.648Z,7.12
2023-03-22T01:54:43.784Z,7.12
2023-03-22T01:54:55.338Z,7.11
2023-03-22T01:55:07.096Z,7.12
2023-03-22T01:55:18.847Z,7.12
2023-03-22T01:55:30.599Z,7.12
2023-03-22T01:55:41.392Z,7.11
2023-03-22T01:55:53.120Z,7.11
2023-03-22T01:56:03.932Z,7.14
2023-03-22T01:56:16.109Z,7.12
2023-03-22T01:56:27.851Z,7.14
2023-03-22T01:56:40.331Z,7.11
2023-03-22T01:56:53.357Z,7.14
2023-03-22T01:57:05.645Z,7.12
2023-03-22T01:57:18.875Z,7.12
2023-03-22T01:57:31.198Z,7.12
2023-03-22T01:57:42.015Z,7.12
2023-03-22T01:57:52.800Z,7.11
2023-03-22T01:58:03.638Z,7.12
2023-03-22T01:58:16.156Z,7.12
2023-03-22T01:58:26.901Z,7.12
2023-03-22T01:58:38.697Z,7.12
2023-03-22T01:58:49.485Z,7.12
2023-03-22T01:59:01.198Z,7.12
2023-03-22T01:59:13.669Z,7.12
2023-03-22T01:59:24.471Z,7.11
2023-03-22T01:59:37.690Z,7.12
2023-03-22T01:59:50.645Z,7.11
2023-03-22T02:00:02.950Z,7.12
2023-03-22T02:00:13.707Z,7.12
2023-03-22T02:00:25.459Z,7.11
2023-03-22T02:00:37.468Z,7.14
2023-03-22T02:00:48.369Z,7.12
2023-03-22T02:00:59.113Z,7.11
2023-03-22T02:01:12.431Z,7.12
2023-03-22T02:01:23.276Z,7.12
2023-03-22T02:01:35.120Z,7.12
2023-03-22T02:01:45.987Z,7.12
2023-03-22T02:01:56.812Z,7.12
2023-03-22T02:02:08.542Z,7.14
2023-03-22T02:02:21.286Z,7.14
2023-03-22T02:02:33.077Z,7.12
2023-03-22T02:02:43.991Z,7.12
2023-03-22T02:02:54.807Z,7.12
2023-03-22T02:03:06.642Z,7.14
2023-03-22T02:03:17.420Z,7.12
2023-03-22T02:03:30.661Z,7.14
2023-03-22T02:03:41.418Z,7.12
2023-03-22T02:03:52.272Z,7.12
2023-03-22T02:04:03.071Z,7.12
2023-03-22T02:04:14.830Z,7.12
2023-03-22T02:04:25.611Z,7.12
2023-03-22T02:04:37.912Z,7.12
2023-03-22T02:04:48.707Z,7.12
2023-03-22T02:05:00.541Z,7.12
2023-03-22T02:05:12.276Z,7.14
2023-03-22T02:05:23.070Z,7.12
2023-03-22T02:05:33.900Z,7.12
2023-03-22T02:05:45.860Z,7.14
2023-03-22T02:05:59.105Z,7.12
2023-03-22T02:06:10.836Z,7.12
2023-03-22T02:06:21.626Z,7.12
2023-03-22T02:06:34.152Z,7.12
2023-03-22T02:06:45.938Z,7.12
2023-03-22T02:06:56.713Z,7.14
2023-03-22T02:07:07.541Z,7.12
2023-03-22T02:07:18.362Z,7.14
2023-03-22T02:07:29.228Z,7.12
2023-03-22T02:07:39.993Z,7.15
2023-03-22T02:07:51.752Z,7.14
2023-03-22T02:08:02.502Z,7.15
2023-03-22T02:08:14.261Z,7.12
2023-03-22T02:08:26.038Z,7.14
2023-03-22T02:08:38.502Z,7.15
2023-03-22T02:08:50.263Z,7.14
2023-03-22T02:09:02.291Z,7.14
2023-03-22T02:09:13.143Z,7.15
2023-03-22T02:09:24.001Z,7.15
2023-03-22T02:09:35.834Z,7.15
2023-03-22T02:09:46.614Z,7.15
2023-03-22T02:09:59.093Z,7.16
2023-03-22T02:10:11.562Z,7.16
2023-03-22T02:10:23.552Z,7.18
2023-03-22T02:10:36.967Z,7.18
2023-03-22T02:10:47.766Z,7.21
2023-03-22T02:10:58.581Z,7.19
2023-03-22T02:11:10.819Z,7.19
2023-03-22T02:11:23.542Z,7.21
2023-03-22T02:11:36.074Z,7.23
2023-03-22T02:11:48.313Z,7.23
2023-03-22T02:12:00.589Z,7.23
2023-03-22T02:12:12.352Z,7.24
2023-03-22T02:12:24.096Z,7.26
2023-03-22T02:12:36.586Z,7.26
2023-03-22T02:12:47.362Z,7.27
2023-03-22T02:12:58.133Z,7.26
2023-03-22T02:13:08.966Z,7.27
2023-03-22T02:13:21.464Z,7.27
2023-03-22T02:13:33.192Z,7.27
2023-03-22T02:13:44.941Z,7.27
2023-03-22T02:13:57.413Z,7.27
2023-03-22T02:14:09.936Z,7.29
2023-03-22T02:14:23.351Z,7.29
2023-03-22T02:14:35.153Z,7.29
2023-03-22T02:14:45.943Z,7.29
2023-03-22T02:14:57.705Z,7.29
2023-03-22T02:15:08.486Z,7.27
2023-03-22T02:15:20.817Z,7.29
2023-03-22T02:15:32.831Z,7.27
2023-03-22T02:15:44.597Z,7.29
2023-03-22T02:15:56.464Z,7.30
2023-03-22T02:16:09.247Z,7.29
2023-03-22T02:16:21.061Z,7.29
2023-03-22T02:16:33.324Z,7.29
2023-03-22T02:16:44.092Z,7.29
2023-03-22T02:16:58.376Z,7.30
2023-03-22T02:17:10.074Z,7.27
2023-03-22T02:17:22.582Z,7.29
2023-03-22T02:17:33.383Z,7.29
2023-03-22T02:17:45.135Z,7.27
2023-03-22T02:17:56.912Z,7.29
2023-03-22T02:18:08.670Z,7.27
2023-03-22T02:18:20.515Z,7.29
2023-03-22T02:18:32.224Z,7.29
2023-03-22T02:18:43.954Z,7.27
2023-03-22T02:18:56.427Z,7.29
2023-03-22T02:19:08.169Z,7.26
2023-03-22T02:19:18.970Z,7.27
2023-03-22T02:19:31.204Z,7.27
2023-03-22T02:19:41.951Z,7.27
2023-03-22T02:19:55.196Z,7.26
2023-03-22T02:20:07.683Z,7.27
2023-03-22T02:20:19.474Z,7.27
2023-03-22T02:20:30.305Z,7.26
2023-03-22T02:20:42.040Z,7.27
2023-03-22T02:20:54.534Z,7.27
2023-03-22T02:21:05.321Z,7.27
2023-03-22T02:21:17.853Z,7.27
2023-03-22T02:21:28.599Z,7.29
2023-03-22T02:21:41.102Z,7.27
2023-03-22T02:21:52.863Z,7.29
2023-03-22T02:22:03.616Z,7.29
2023-03-22T02:22:14.399Z,7.27
2023-03-22T02:22:26.142Z,7.27
2023-03-22T02:22:36.963Z,7.29
2023-03-22T02:22:47.775Z,7.29
2023-03-22T02:22:59.765Z,7.29
2023-03-22T02:23:10.565Z,7.29
2023-03-22T02:23:21.398Z,7.29
2023-03-22T02:23:33.213Z,7.29
2023-03-22T02:23:44.037Z,7.29
2023-03-22T02:23:54.859Z,7.29
2023-03-22T02:24:05.646Z,7.29
2023-03-22T02:24:16.406Z,7.29
2023-03-22T02:24:28.141Z,7.29
2023-03-22T02:24:38.877Z,7.29
2023-03-22T02:24:51.336Z,7.29
2023-03-22T02:25:03.091Z,7.29
2023-03-22T02:25:15.344Z,7.29
2023-03-22T02:25:27.591Z,7.27
2023-03-22T02:25:38.430Z,7.29
2023-03-22T02:25:50.885Z,7.30
2023-03-22T02:26:02.643Z,7.29
2023-03-22T02:26:13.423Z,7.29
2023-03-22T02:26:26.683Z,7.29
2023-03-22T02:26:38.500Z,7.27
2023-03-22T02:26:50.185Z,7.29
2023-03-22T02:27:02.467Z,7.29
2023-03-22T02:27:14.985Z,7.27
2023-03-22T02:27:25.799Z,7.29
2023-03-22T02:27:36.609Z,7.29
2023-03-22T02:27:47.457Z,7.29
2023-03-22T02:27:59.186Z,7.29
2023-03-22T02:28:10.935Z,7.27
2023-03-22T02:28:22.743Z,7.29
2023-03-22T02:28:35.282Z,7.29
2023-03-22T02:28:46.057Z,7.27
2023-03-22T02:28:56.886Z,7.29
2023-03-22T02:29:09.638Z,7.29
2023-03-22T02:29:21.396Z,7.30
2023-03-22T02:29:33.637Z,7.30
2023-03-22T02:29:46.386Z,7.27
2023-03-22T02:29:58.686Z,7.30
2023-03-22T02:30:10.416Z,7.29
2023-03-22T02:30:22.160Z,7.30
2023-03-22T02:30:33.967Z,7.29
2023-03-22T02:30:46.437Z,7.29
2023-03-22T02:30:57.249Z,7.29
2023-03-22T02:31:09.593Z,7.30
2023-03-22T02:31:21.348Z,7.30
2023-03-22T02:31:33.174Z,7.30
2023-03-22T02:31:44.941Z,7.30
2023-03-22T02:31:55.717Z,7.30
2023-03-22T02:32:07.986Z,7.30
2023-03-22T02:32:18.883Z,7.30
2023-03-22T02:32:29.709Z,7.30
2023-03-22T02:32:42.191Z,7.30
2023-03-22T02:32:53.913Z,7.32
2023-03-22T02:33:04.734Z,7.30
2023-03-22T02:33:16.510Z,7.32
2023-03-22T02:33:28.371Z,7.30
2023-03-22T02:33:41.665Z,7.30
2023-03-22T02:33:52.493Z,7.32
2023-03-22T02:34:05.708Z,7.32
2023-03-22T02:34:18.160Z,7.32
2023-03-22T02:34:28.945Z,7.32
2023-03-22T02:34:40.677Z,7.33
2023-03-22T02:34:54.405Z,7.33
2023-03-22T02:35:07.618Z,7.32
2023-03-22T02:35:18.427Z,7.33
2023-03-22T02:35:30.314Z,7.34
2023-03-22T02:35:43.295Z,7.33
2023-03-22T02:35:55.823Z,7.34
2023-03-22T02:36:08.059Z,7.33
2023-03-22T02:36:19.819Z,7.34